Time;durP1;ratioP1;P1;durP2;ratioP2;P2;SDS_P1;SDS_P2;PMS_P1;PMS_P2;Temp;Humidity;BMP_temperature;BMP_pressure;BME280_temperature;BME280_humidity;BME280_pressure;Samples;Min_cycle;Max_cycle;Signal;HPM_P1;HPM_P2
2021/04/18 00:02:03;;;;;;;104.30;35.20;;;;;;;10.34;69.41;100421.44;3597244;39;20036;-70
2021/04/18 00:04:29;;;;;;;99.75;37.00;;;;;;;10.33;69.21;100419.72;3597482;40;20067;-70
2021/04/18 00:06:55;;;;;;;101.22;37.88;;;;;;;10.33;69.27;100413.63;3593114;39;20043;-70
2021/04/18 00:09:23;;;;;;;103.82;37.72;;;;;;;10.36;69.07;100414.38;3588452;40;20033;-70
2021/04/18 00:11:49;;;;;;;99.72;37.17;;;;;;;10.42;69.03;100415.09;3588385;40;20117;-70
2021/04/18 00:14:15;;;;;;;98.22;36.92;;;;;;;10.40;69.12;100409.88;3588256;40;20045;-70
2021/04/18 00:16:42;;;;;;;98.20;37.65;;;;;;;10.39;69.07;100416.03;3586958;40;20471;-69
2021/04/18 00:19:08;;;;;;;106.30;39.28;;;;;;;10.39;68.97;100423.88;3588273;40;20037;-70
2021/04/18 00:21:34;;;;;;;109.65;39.17;;;;;;;10.38;68.89;100424.78;3587528;40;20025;-70
2021/04/18 00:24:01;;;;;;;111.45;38.90;;;;;;;10.37;68.92;100429.19;3587513;40;20042;-70
2021/04/18 00:26:28;;;;;;;106.70;38.15;;;;;;;10.38;69.03;100428.28;3587419;40;20410;-70
2021/04/18 00:28:55;;;;;;;101.97;39.28;;;;;;;10.42;68.86;100433.44;3588384;39;20145;-70
2021/04/18 00:31:21;;;;;;;103.68;38.50;;;;;;;10.45;68.88;100430.69;3599525;39;20038;-69
2021/04/18 00:33:47;;;;;;;98.35;37.92;;;;;;;10.48;68.70;100434.06;3601769;39;20040;-70
2021/04/18 00:36:13;;;;;;;98.45;38.85;;;;;;;10.49;68.65;100433.16;3599086;39;20043;-71
2021/04/18 00:38:40;;;;;;;101.43;40.10;;;;;;;10.48;68.56;100434.06;3600179;39;20088;-71
2021/04/18 00:41:06;;;;;;;111.90;37.38;;;;;;;10.43;68.70;100435.16;3594791;39;20040;-70
2021/04/18 00:43:39;;;;;;;107.28;39.83;;;;;;;10.36;68.87;100439.72;3597734;39;20036;-70
2021/04/18 00:46:05;;;;;;;107.50;39.28;;;;;;;10.34;68.67;100441.53;3597857;39;20032;-70
2021/04/18 00:48:32;;;;;;;107.05;36.75;;;;;;;10.30;68.84;100443.41;3597440;39;20036;-70
2021/04/18 00:50:58;;;;;;;102.85;35.75;;;;;;;10.24;68.96;100443.63;3596782;39;20415;-69
2021/04/18 00:53:24;;;;;;;118.32;39.25;;;;;;;10.15;69.21;100437.78;3597299;39;20278;-70
2021/04/18 00:55:50;;;;;;;105.60;38.70;;;;;;;10.14;69.20;100438.69;3596742;39;20051;-69
2021/04/18 00:58:17;;;;;;;111.00;37.67;;;;;;;10.13;69.40;100442.22;3597817;39;20040;-69
2021/04/18 01:00:44;;;;;;;110.28;38.60;;;;;;;10.11;69.32;100442.28;3597306;40;20067;-68
2021/04/18 01:03:10;;;;;;;104.70;35.58;;;;;;;10.14;68.97;100436.94;3597830;39;20450;-69
2021/04/18 01:05:36;;;;;;;89.55;34.35;;;;;;;10.17;69.12;100441.22;3597197;40;20040;-70
2021/04/18 01:08:03;;;;;;;83.13;31.48;;;;;;;10.14;69.09;100438.69;3596247;39;20028;-69
2021/04/18 01:10:30;;;;;;;90.38;32.05;;;;;;;10.15;69.35;100435.19;3597663;39;20118;-70
2021/04/18 01:12:56;;;;;;;83.85;32.80;;;;;;;10.17;69.16;100435.97;3599421;40;20043;-70
2021/04/18 01:15:22;;;;;;;88.70;33.22;;;;;;;10.14;69.32;100438.69;3597205;39;20072;-70
2021/04/18 01:17:49;;;;;;;89.82;32.97;;;;;;;10.08;69.49;100434.53;3599533;39;20044;-69
2021/04/18 01:20:19;;;;;;;79.97;30.58;;;;;;;10.10;69.28;100430.09;3598400;40;20031;-70
2021/04/18 01:22:47;;;;;;;84.25;32.85;;;;;;;10.07;69.41;100428.44;3598793;39;20036;-70
2021/04/18 01:25:15;;;;;;;82.55;32.63;;;;;;;9.99;69.36;100425.19;3599637;39;20029;-70
2021/04/18 01:27:44;;;;;;;84.18;31.77;;;;;;;9.98;69.41;100422.63;3599406;39;20028;-69
2021/04/18 01:30:13;;;;;;;76.72;30.25;;;;;;;9.96;69.63;100414.84;3599756;39;20035;-70
2021/04/18 01:32:43;;;;;;;88.43;32.67;;;;;;;9.89;69.72;100418.56;3598480;40;20035;-70
2021/04/18 01:35:11;;;;;;;83.72;32.90;;;;;;;9.96;69.75;100414.84;3599499;40;20228;-70
2021/04/18 01:37:37;;;;;;;81.22;31.83;;;;;;;10.06;69.34;100418.03;3599481;39;20415;-70
2021/04/18 01:40:06;;;;;;;91.03;30.77;;;;;;;10.07;69.41;100417.97;3599195;39;20363;-70
2021/04/18 01:42:34;;;;;;;88.30;34.17;;;;;;;10.04;69.37;100420.69;3599200;39;20112;-70
2021/04/18 01:45:00;;;;;;;97.57;33.70;;;;;;;10.04;69.47;100423.31;3599634;39;20032;-70
2021/04/18 01:47:27;;;;;;;95.70;32.80;;;;;;;10.04;69.46;100422.47;3597437;39;20044;-69
2021/04/18 01:49:53;;;;;;;94.07;34.17;;;;;;;10.01;69.45;100418.19;3599258;39;20068;-70
2021/04/18 01:52:19;;;;;;;101.78;34.70;;;;;;;9.93;69.78;100420.19;3598619;40;20043;-71
2021/04/18 01:54:46;;;;;;;98.95;33.75;;;;;;;9.92;69.72;100421.09;3600385;40;20087;-69
2021/04/18 01:57:13;;;;;;;100.82;37.50;;;;;;;9.90;69.87;100415.03;3599521;40;20293;-70
2021/04/18 01:59:39;;;;;;;113.85;37.22;;;;;;;9.89;69.80;100410.72;3600124;39;20112;-70
2021/04/18 02:02:07;;;;;;;93.47;34.13;;;;;;;9.82;69.84;100411.84;3599594;39;20080;-69
2021/04/18 02:04:34;;;;;;;105.65;34.70;;;;;;;9.78;70.17;100415.44;3600093;39;20121;-70
2021/04/18 02:07:01;;;;;;;107.45;35.17;;;;;;;9.77;70.25;100409.34;3599383;39;20056;-70
2021/04/18 02:09:34;;;;;;;94.25;34.03;;;;;;;9.77;70.18;100405.88;3598444;39;20036;-70
2021/04/18 02:12:06;;;;;;;96.60;32.47;;;;;;;9.78;70.19;100405.81;3596921;39;20048;-69
2021/04/18 02:14:34;;;;;;;94.85;33.03;;;;;;;9.74;70.23;100406.81;3596030;39;20282;-70
2021/04/18 02:17:01;;;;;;;103.50;34.85;;;;;;;9.73;70.22;100399.88;3598913;39;20125;-70
2021/04/18 02:19:28;;;;;;;96.22;32.53;;;;;;;9.70;70.40;100402.59;3603521;39;20040;-70
2021/04/18 02:21:54;;;;;;;100.40;33.97;;;;;;;9.73;70.37;100399.03;3600010;39;20039;-69
2021/04/18 02:24:21;;;;;;;104.95;35.08;;;;;;;9.69;70.39;100400.88;3599500;39;20068;-71
2021/04/18 02:26:48;;;;;;;100.00;33.42;;;;;;;9.70;70.32;100404.38;3599093;39;20047;-72
2021/04/18 02:29:14;;;;;;;100.93;35.28;;;;;;;9.68;70.47;100398.31;3597801;39;20067;-70
2021/04/18 02:31:42;;;;;;;101.22;33.97;;;;;;;9.63;70.49;100395.84;3599189;39;20076;-72
2021/04/18 02:34:09;;;;;;;93.68;32.45;;;;;;;9.68;70.58;100387.84;3599886;39;20071;-69
2021/04/18 02:36:36;;;;;;;81.80;32.33;;;;;;;9.73;70.49;100386.78;3599008;39;20401;-71
2021/04/18 02:39:03;;;;;;;91.53;33.42;;;;;;;9.77;70.33;100384.91;3599092;40;20055;-71
2021/04/18 02:41:29;;;;;;;95.53;35.08;;;;;;;9.84;70.08;100389.06;3597928;40;20028;-69
2021/04/18 02:43:56;;;;;;;99.35;35.65;;;;;;;9.88;69.98;100382.81;3599753;39;20375;-69
2021/04/18 02:46:22;;;;;;;92.70;35.85;;;;;;;9.90;69.94;100390.63;3599119;39;20367;-69
2021/04/18 02:48:49;;;;;;;94.97;34.10;;;;;;;9.90;70.17;100382.75;3590944;39;20044;-69
2021/04/18 02:51:15;;;;;;;99.25;33.70;;;;;;;9.93;69.94;100385.28;3588361;40;20040;-70
2021/04/18 02:53:43;;;;;;;86.00;32.92;;;;;;;9.96;69.90;100388.63;3588352;40;20314;-70
2021/04/18 02:56:09;;;;;;;97.95;35.25;;;;;;;9.94;69.95;100385.22;3588812;40;20040;-70
2021/04/18 02:58:36;;;;;;;92.05;33.28;;;;;;;9.91;69.70;100385.34;3589424;40;20044;-70
2021/04/18 03:01:03;;;;;;;91.60;31.85;;;;;;;9.92;70.00;100387.03;3589010;40;20344;-67
2021/04/18 03:03:29;;;;;;;82.53;32.50;;;;;;;9.98;69.70;100383.34;3589076;40;20078;-67
2021/04/18 03:05:56;;;;;;;89.07;31.83;;;;;;;10.01;69.69;100376.28;3588846;40;20044;-67
2021/04/18 03:08:23;;;;;;;78.85;32.40;;;;;;;10.04;69.64;100380.53;3588659;40;20371;-68
2021/04/18 03:10:49;;;;;;;93.60;31.90;;;;;;;10.07;69.60;100381.28;3588555;40;20033;-67
2021/04/18 03:13:15;;;;;;;84.68;30.88;;;;;;;10.08;69.54;100383.00;3589647;39;20041;-67
2021/04/18 03:15:42;;;;;;;96.13;34.30;;;;;;;10.11;69.40;100391.66;3596110;39;20407;-66
2021/04/18 03:18:09;;;;;;;118.60;35.33;;;;;;;10.05;69.40;100397.97;3603498;39;20036;-67
2021/04/18 03:20:36;;;;;;;94.45;32.35;;;;;;;9.94;69.59;100400.09;3608944;39;20024;-66
2021/04/18 03:23:03;;;;;;;96.82;32.63;;;;;;;9.92;69.50;100407.13;3607997;39;20035;-66
2021/04/18 03:25:29;;;;;;;82.10;31.38;;;;;;;9.81;69.86;100407.50;3608810;39;20042;-66
2021/04/18 03:27:55;;;;;;;83.30;31.02;;;;;;;9.72;69.89;100415.63;3608673;39;20087;-68
2021/04/18 03:30:22;;;;;;;92.93;31.42;;;;;;;9.66;70.14;100416.69;3609192;39;20024;-66
2021/04/18 03:32:48;;;;;;;87.90;31.98;;;;;;;9.62;70.09;100419.47;3609296;39;20067;-66
2021/04/18 03:35:15;;;;;;;87.55;30.30;;;;;;;9.55;70.24;100417.94;3607701;39;20036;-67
2021/04/18 03:37:41;;;;;;;107.55;31.55;;;;;;;9.48;70.45;100423.38;3608952;39;20269;-66
2021/04/18 03:40:09;;;;;;;106.57;33.78;;;;;;;9.48;70.54;100427.75;3608153;39;20034;-66
2021/04/18 03:42:36;;;;;;;102.50;33.28;;;;;;;9.47;70.28;100431.25;3608661;39;20024;-66
2021/04/18 03:45:02;;;;;;;107.88;35.97;;;;;;;9.36;70.65;100436.81;3597139;39;20052;-66
2021/04/18 03:47:29;;;;;;;119.72;36.95;;;;;;;9.30;70.67;100436.16;3598605;39;20389;-65
2021/04/18 03:49:55;;;;;;;121.38;37.25;;;;;;;9.27;70.83;100439.72;3602883;39;20046;-66
2021/04/18 03:52:21;;;;;;;127.70;36.58;;;;;;;9.21;70.94;100434.69;3600638;39;20477;-66
2021/04/18 03:54:47;;;;;;;137.50;40.03;;;;;;;9.13;71.07;100436.66;3607907;39;20112;-66
2021/04/18 03:57:14;;;;;;;162.23;40.42;;;;;;;9.05;71.40;100436.88;3606935;39;20414;-66
2021/04/18 03:59:41;;;;;;;146.35;40.88;;;;;;;9.01;71.35;100437.88;3609389;39;20044;-66
2021/04/18 04:02:07;;;;;;;152.70;41.70;;;;;;;8.96;71.43;100433.69;3608441;39;20408;-66
2021/04/18 04:04:33;;;;;;;146.57;39.42;;;;;;;8.97;71.65;100430.16;3609475;39;20031;-66
2021/04/18 04:06:59;;;;;;;142.98;40.70;;;;;;;9.04;71.48;100436.94;3608879;39;20024;-66
2021/04/18 04:09:26;;;;;;;105.88;33.38;;;;;;;9.09;71.06;100435.88;3609474;39;20044;-67
2021/04/18 04:11:52;;;;;;;96.68;34.15;;;;;;;9.16;70.91;100437.44;3608298;39;20060;-67
2021/04/18 04:14:19;;;;;;;102.47;35.78;;;;;;;9.21;70.95;100424.22;3609394;39;20075;-66
2021/04/18 04:16:45;;;;;;;86.00;31.80;;;;;;;9.28;70.71;100433.59;3606851;39;20031;-67
2021/04/18 04:19:11;;;;;;;104.47;35.63;;;;;;;9.30;70.73;100433.53;3597137;39;20044;-67
2021/04/18 04:21:38;;;;;;;83.18;32.83;;;;;;;9.28;70.76;100436.19;3598632;39;20048;-67
2021/04/18 04:24:04;;;;;;;87.15;30.27;;;;;;;9.26;70.44;100429.31;3605901;39;20156;-67
2021/04/18 04:26:31;;;;;;;79.45;30.33;;;;;;;9.27;70.73;100433.63;3602957;39;20111;-67
2021/04/18 04:28:57;;;;;;;83.30;31.08;;;;;;;9.32;70.40;100440.44;3588816;39;20129;-67
2021/04/18 04:31:24;;;;;;;79.60;30.15;;;;;;;9.39;70.05;100441.97;3594689;39;20393;-66
2021/04/18 04:33:50;;;;;;;81.10;31.63;;;;;;;9.39;70.17;100441.97;3597266;39;20292;-66
2021/04/18 04:36:16;;;;;;;77.15;29.77;;;;;;;9.39;70.04;100447.22;3601103;39;20123;-67
2021/04/18 04:38:43;;;;;;;79.13;27.65;;;;;;;9.36;69.96;100444.66;3606427;39;20040;-67
2021/04/18 04:41:10;;;;;;;70.53;28.73;;;;;;;9.37;70.03;100446.41;3607324;39;20027;-66
2021/04/18 04:43:36;;;;;;;77.40;28.15;;;;;;;9.34;70.01;100445.59;3608246;39;20036;-67
2021/04/18 04:46:03;;;;;;;77.63;27.80;;;;;;;9.32;69.85;100445.66;3609233;39;20300;-68
2021/04/18 04:48:30;;;;;;;74.97;26.75;;;;;;;9.34;69.98;100446.47;3609370;39;20116;-66
2021/04/18 04:50:57;;;;;;;76.85;29.55;;;;;;;9.35;69.71;100445.56;3610198;39;20117;-67
2021/04/18 04:53:23;;;;;;;65.00;28.65;;;;;;;9.40;69.57;100438.44;3609847;39;20139;-66
2021/04/18 04:55:50;;;;;;;76.25;29.92;;;;;;;9.47;69.53;100445.19;3610125;39;20031;-66
2021/04/18 04:58:16;;;;;;;73.30;29.92;;;;;;;9.52;69.52;100439.81;3610392;39;20068;-66
2021/04/18 05:00:43;;;;;;;75.65;29.02;;;;;;;9.52;69.35;100436.34;3609716;39;20044;-66
2021/04/18 05:03:10;;;;;;;71.22;27.63;;;;;;;9.58;69.30;100438.75;3599800;39;20384;-67
2021/04/18 05:05:37;;;;;;;75.65;28.15;;;;;;;9.64;69.09;100433.38;3596865;39;20036;-67
2021/04/18 05:08:04;;;;;;;65.40;26.88;;;;;;;9.75;68.85;100442.56;3599570;39;20072;-67
2021/04/18 05:10:30;;;;;;;65.30;25.65;;;;;;;9.92;68.34;100449.88;3599655;39;20040;-66
2021/04/18 05:12:56;;;;;;;64.90;26.10;;;;;;;9.98;68.24;100444.44;3599957;39;20116;-66
2021/04/18 05:15:23;;;;;;;63.83;26.13;;;;;;;9.98;68.19;100444.44;3599786;40;20032;-67
2021/04/18 05:17:49;;;;;;;58.92;25.65;;;;;;;10.02;68.01;100438.22;3599095;39;20054;-67
2021/04/18 05:20:17;;;;;;;70.93;26.13;;;;;;;10.10;67.89;100443.19;3599848;39;20142;-67
2021/04/18 05:22:44;;;;;;;62.92;25.35;;;;;;;10.13;67.89;100447.47;3599917;39;20036;-66
2021/04/18 05:25:12;;;;;;;66.78;27.10;;;;;;;10.16;67.98;100452.59;3599463;39;20031;-66
2021/04/18 05:27:38;;;;;;;59.05;25.77;;;;;;;10.27;67.53;100445.28;3599293;39;20044;-67
2021/04/18 05:30:07;;;;;;;63.47;25.08;;;;;;;10.27;67.64;100455.78;3599183;39;20146;-66
2021/04/18 05:32:33;;;;;;;71.25;28.50;;;;;;;10.22;67.60;100455.94;3598501;40;20385;-65
2021/04/18 05:34:59;;;;;;;57.40;26.02;;;;;;;10.31;67.44;100452.13;3599343;39;20040;-67
2021/04/18 05:37:26;;;;;;;59.67;26.55;;;;;;;10.45;67.20;100455.16;3598439;39;20042;-66
2021/04/18 05:39:53;;;;;;;68.07;26.27;;;;;;;10.62;66.68;100452.78;3599780;39;20028;-66
2021/04/18 05:42:20;;;;;;;58.83;23.30;;;;;;;10.75;66.26;100457.59;3597226;39;20036;-67
2021/04/18 05:44:46;;;;;;;46.15;21.02;;;;;;;10.67;66.08;100461.34;3589124;40;20036;-66
2021/04/18 05:47:12;;;;;;;52.95;23.02;;;;;;;10.70;66.25;100460.38;3588515;40;20035;-66
2021/04/18 05:49:38;;;;;;;52.83;24.58;;;;;;;10.83;65.83;100466.06;3590108;40;20278;-66
2021/04/18 05:52:05;;;;;;;54.45;24.67;;;;;;;10.99;65.58;100464.56;3589185;40;20041;-66
2021/04/18 05:54:31;;;;;;;52.78;22.52;;;;;;;11.11;65.30;100464.13;3590296;40;20041;-66
2021/04/18 05:56:58;;;;;;;54.17;23.00;;;;;;;11.17;65.03;100470.91;3589279;40;20040;-66
2021/04/18 05:59:25;;;;;;;52.03;24.25;;;;;;;11.27;64.67;100465.28;3589301;40;20510;-66
2021/04/18 06:01:51;;;;;;;55.30;23.33;;;;;;;11.43;64.45;100472.53;3589248;40;20033;-66
2021/04/18 06:04:17;;;;;;;51.55;23.27;;;;;;;11.39;64.39;100470.97;3590049;40;20136;-67
2021/04/18 06:06:44;;;;;;;51.53;24.02;;;;;;;11.47;64.07;100466.28;3589063;40;20405;-66
2021/04/18 06:09:10;;;;;;;41.72;21.85;;;;;;;11.58;63.83;100466.72;3589446;40;20319;-67
2021/04/18 06:11:36;;;;;;;51.13;23.77;;;;;;;11.68;63.48;100468.06;3589125;40;20025;-66
2021/04/18 06:14:03;;;;;;;51.97;22.40;;;;;;;11.68;63.17;100470.69;3589052;40;20043;-66
2021/04/18 06:16:29;;;;;;;45.60;22.88;;;;;;;11.71;63.28;100464.47;3595058;39;20053;-66
2021/04/18 06:18:56;;;;;;;44.92;22.00;;;;;;;11.71;63.14;100470.56;3599722;40;20064;-66
2021/04/18 06:21:30;;;;;;;57.85;25.40;;;;;;;11.72;63.07;100469.66;3598482;39;20032;-66
2021/04/18 06:23:56;;;;;;;46.70;24.73;;;;;;;11.92;62.47;100474.16;3599630;39;20032;-65
2021/04/18 06:26:22;;;;;;;48.78;23.80;;;;;;;12.13;61.76;100478.53;3599057;39;20060;-66
2021/04/18 06:28:48;;;;;;;45.63;22.67;;;;;;;12.30;61.60;100475.22;3598841;40;20062;-66
2021/04/18 06:31:15;;;;;;;51.22;24.27;;;;;;;12.61;60.83;100476.53;3599188;39;20031;-67
2021/04/18 06:33:42;;;;;;;47.85;23.30;;;;;;;12.88;60.28;100475.31;3599744;40;20093;-66
2021/04/18 06:36:08;;;;;;;42.35;21.20;;;;;;;13.16;59.43;100482.00;3598953;39;20372;-67
2021/04/18 06:38:35;;;;;;;45.03;22.65;;;;;;;13.19;59.47;100479.25;3599687;39;20036;-67
2021/04/18 06:41:01;;;;;;;46.20;21.17;;;;;;;13.01;59.77;100480.91;3598958;39;20072;-66
2021/04/18 06:43:28;;;;;;;51.28;23.35;;;;;;;12.91;59.91;100485.72;3597738;39;20072;-67
2021/04/18 06:45:54;;;;;;;41.35;20.95;;;;;;;13.11;59.37;100483.03;3593567;39;20086;-67
2021/04/18 06:48:22;;;;;;;36.42;20.13;;;;;;;13.30;58.85;100483.09;3588202;40;20059;-66
2021/04/18 06:50:49;;;;;;;40.70;20.60;;;;;;;13.43;58.43;100489.53;3587899;40;20033;-66
2021/04/18 06:53:28;;;;;;;42.58;20.83;;;;;;;13.40;58.42;100481.75;3588093;40;20033;-68
2021/04/18 06:55:55;;;;;;;42.97;21.13;;;;;;;13.30;58.92;100490.13;3588806;40;20062;-68
2021/04/18 06:58:21;;;;;;;41.42;21.92;;;;;;;13.09;59.50;100486.66;3589167;40;20037;-66
2021/04/18 07:00:47;;;;;;;41.10;22.27;;;;;;;13.07;59.27;100485.88;3588740;40;20147;-67
2021/04/18 07:03:15;;;;;;;35.70;19.42;;;;;;;13.18;58.70;100483.66;3589029;40;20060;-67
2021/04/18 07:05:44;;;;;;;36.85;20.45;;;;;;;13.33;57.98;100482.97;3588692;40;20417;-67
2021/04/18 07:08:22;;;;;;;39.03;19.60;;;;;;;13.44;57.88;100485.09;3589395;39;20080;-66
2021/04/18 07:10:49;;;;;;;39.83;20.20;;;;;;;13.57;57.64;100488.03;3595639;39;20418;-65
2021/04/18 07:13:18;;;;;;;38.22;19.30;;;;;;;13.51;57.26;100490.94;3599070;39;20465;-65
2021/04/18 07:15:46;;;;;;;33.22;17.58;;;;;;;13.36;57.73;100498.63;3603827;39;20032;-66
2021/04/18 07:18:15;;;;;;;37.47;20.77;;;;;;;13.38;57.72;100490.66;3599265;39;20048;-67
2021/04/18 07:21:00;;;;;;;35.05;19.02;;;;;;;13.75;57.05;100494.22;3598677;39;20032;-66
2021/04/18 07:23:29;;;;;;;33.42;19.63;;;;;;;14.00;55.81;100492.09;3599067;39;20389;-66
2021/04/18 07:25:56;;;;;;;35.85;20.60;;;;;;;13.90;56.01;100493.47;3598681;40;20090;-66
2021/04/18 07:28:23;;;;;;;36.22;20.02;;;;;;;13.80;56.28;100493.06;3599069;39;20185;-66
2021/04/18 07:30:51;;;;;;;39.10;20.27;;;;;;;14.09;55.72;100498.69;3598279;39;20466;-66
2021/04/18 07:33:27;;;;;;;34.90;19.08;;;;;;;14.05;55.74;100498.00;3596852;39;20435;-68
2021/04/18 07:35:57;;;;;;;38.78;20.40;;;;;;;14.14;55.68;100497.53;3598230;39;20067;-70
2021/04/18 07:38:27;;;;;;;37.30;21.15;;;;;;;14.30;55.12;100500.28;3598308;39;20060;-70
2021/04/18 07:40:55;;;;;;;35.30;19.48;;;;;;;14.33;54.78;100503.63;3597535;40;20390;-68
2021/04/18 07:43:22;;;;;;;33.72;19.70;;;;;;;14.14;55.05;100508.09;3596295;40;20494;-66
2021/04/18 07:45:50;;;;;;;34.05;18.83;;;;;;;14.27;54.87;100506.56;3604681;39;20311;-65
2021/04/18 07:48:18;;;;;;;36.58;19.83;;;;;;;14.60;53.77;100506.69;3596690;39;20029;-66
2021/04/18 07:50:47;;;;;;;32.45;18.45;;;;;;;14.55;53.32;100507.84;3594747;39;20384;-66
2021/04/18 07:53:16;;;;;;;33.53;18.55;;;;;;;14.23;54.13;100501.53;3596575;39;20036;-66
2021/04/18 07:55:43;;;;;;;35.60;20.50;;;;;;;14.08;54.66;100504.91;3596142;39;20032;-66
2021/04/18 07:58:11;;;;;;;35.95;19.45;;;;;;;13.89;54.87;100507.56;3596576;39;20271;-65
2021/04/18 08:00:38;;;;;;;35.55;20.58;;;;;;;13.92;54.85;100507.41;3595982;39;20099;-66
2021/04/18 08:03:05;;;;;;;32.75;19.45;;;;;;;14.22;54.20;100503.31;3596043;39;20036;-66
2021/04/18 08:05:33;;;;;;;32.95;20.08;;;;;;;14.32;54.03;100507.19;3596701;39;20028;-66
2021/04/18 08:08:02;;;;;;;34.97;19.30;;;;;;;14.33;53.66;100508.88;3596247;39;20352;-66
2021/04/18 08:10:32;;;;;;;30.50;17.30;;;;;;;14.56;52.67;100509.56;3596769;39;20130;-67
2021/04/18 08:13:08;;;;;;;31.17;17.58;;;;;;;14.63;52.80;100508.34;3596390;40;20075;-66
2021/04/18 08:15:37;;;;;;;31.35;16.70;;;;;;;14.49;52.77;100502.88;3590718;39;20121;-65
2021/04/18 08:18:07;;;;;;;29.35;16.77;;;;;;;14.18;53.68;100500.91;3596714;39;20040;-67
2021/04/18 08:20:35;;;;;;;35.50;19.15;;;;;;;14.34;53.20;100502.69;3597080;39;20036;-66
2021/04/18 08:23:05;;;;;;;30.75;18.15;;;;;;;15.16;51.16;100502.03;3595888;39;20411;-66
2021/04/18 08:25:32;;;;;;;31.50;17.90;;;;;;;15.85;49.63;100505.31;3594127;39;20036;-66
2021/04/18 08:28:06;;;;;;;30.48;17.27;;;;;;;16.48;48.38;100503.50;3596956;39;20056;-66
2021/04/18 08:31:01;;;;;;;31.05;17.85;;;;;;;17.32;47.02;100504.56;3596059;39;20032;-67
2021/04/18 08:33:44;;;;;;;28.90;16.90;;;;;;;17.46;46.68;100493.94;3597105;39;20044;-65
2021/04/18 08:36:12;;;;;;;30.00;17.60;;;;;;;17.53;46.03;100502.38;3595451;40;20040;-65
2021/04/18 08:38:38;;;;;;;30.17;18.30;;;;;;;17.63;46.21;100503.50;3595417;39;20038;-66
2021/04/18 08:41:13;;;;;;;27.45;17.05;;;;;;;17.73;45.65;100496.69;3596140;39;20029;-67
2021/04/18 08:43:41;;;;;;;22.70;15.05;;;;;;;17.99;45.02;100487.06;3597607;39;20028;-66
2021/04/18 08:46:07;;;;;;;25.10;14.40;;;;;;;17.93;44.60;100493.63;3597547;39;20038;-66
2021/04/18 08:48:34;;;;;;;23.48;15.43;;;;;;;17.46;45.12;100491.28;3598022;39;20281;-67
2021/04/18 08:51:02;;;;;;;23.55;15.27;;;;;;;17.10;46.40;100485.66;3597826;39;20032;-66
2021/04/18 08:53:49;;;;;;;29.05;16.50;;;;;;;17.00;46.26;100491.50;3597948;39;20142;-67
2021/04/18 08:56:15;;;;;;;25.52;16.42;;;;;;;17.25;45.92;100490.00;3592677;39;20044;-68
2021/04/18 08:58:42;;;;;;;26.25;16.77;;;;;;;18.25;43.42;100482.69;3592630;40;20037;-68
2021/04/18 09:01:11;;;;;;;25.15;15.48;;;;;;;19.77;40.08;100482.69;3591607;40;20036;-67
2021/04/18 09:03:38;;;;;;;21.92;14.80;;;;;;;22.12;36.09;100483.09;3597786;39;20109;-67
2021/04/18 09:06:11;;;;;;;24.20;16.58;;;;;;;23.23;34.29;100475.41;3597032;39;20158;-66
2021/04/18 09:08:51;;;;;;;18.70;12.98;;;;;;;23.45;33.99;100471.69;3596910;39;20265;-67
2021/04/18 09:11:17;;;;;;;20.52;12.40;;;;;;;23.62;33.01;100480.91;3596652;40;20032;-67
2021/04/18 09:13:56;;;;;;;19.10;12.55;;;;;;;22.16;35.14;100481.84;3597786;39;20036;-67
2021/04/18 09:16:26;;;;;;;22.25;13.60;;;;;;;21.00;37.31;100482.31;3596342;39;20032;-67
2021/04/18 09:19:21;;;;;;;27.00;14.23;;;;;;;20.01;38.97;100487.19;3597295;39;20039;-66
2021/04/18 09:21:55;;;;;;;21.45;14.52;;;;;;;19.41;40.32;100493.31;3595993;40;20045;-66
2021/04/18 09:24:21;;;;;;;23.77;14.65;;;;;;;18.99;40.55;100490.03;3597331;39;20502;-66
2021/04/18 09:26:55;;;;;;;24.05;15.85;;;;;;;18.43;41.18;100496.53;3597765;39;20075;-67
2021/04/18 09:29:23;;;;;;;21.27;13.93;;;;;;;17.84;42.24;100498.66;3597892;39;20060;-67
2021/04/18 09:31:58;;;;;;;26.02;13.85;;;;;;;17.48;43.13;100494.69;3597498;39;20292;-66
2021/04/18 09:34:26;;;;;;;23.17;14.43;;;;;;;17.53;42.75;100495.28;3600150;39;20084;-67
2021/04/18 09:36:55;;;;;;;26.92;15.10;;;;;;;17.42;42.58;100491.59;3593008;39;20405;-67
2021/04/18 09:39:26;;;;;;;24.30;15.85;;;;;;;16.90;43.41;100492.19;3598057;39;20052;-67
2021/04/18 09:41:52;;;;;;;26.40;15.48;;;;;;;16.80;43.96;100488.34;3598301;40;20418;-67
2021/04/18 09:44:34;;;;;;;24.70;15.10;;;;;;;16.75;44.13;100484.19;3599397;39;20044;-66
2021/04/18 09:47:16;;;;;;;25.38;16.02;;;;;;;17.21;43.23;100486.69;3603303;39;20042;-67
2021/04/18 09:49:44;;;;;;;24.35;14.50;;;;;;;21.77;35.36;100477.94;3599072;39;20032;-67
2021/04/18 09:52:10;;;;;;;22.50;14.70;;;;;;;24.03;31.14;100477.19;3598274;39;20033;-67
2021/04/18 09:54:37;;;;;;;24.10;15.60;;;;;;;23.85;31.34;100479.69;3599157;39;20413;-68
2021/04/18 09:57:22;;;;;;;25.70;15.60;;;;;;;23.21;33.28;100480.03;3599544;39;20080;-66
2021/04/18 10:00:05;;;;;;;21.88;14.63;;;;;;;23.41;33.31;100479.13;3598165;40;20032;-67
2021/04/18 10:02:33;;;;;;;20.20;13.63;;;;;;;23.00;33.61;100479.25;3596106;39;20368;-66
2021/04/18 10:05:15;;;;;;;21.30;14.68;;;;;;;22.02;34.95;100484.78;3598918;39;20043;-67
2021/04/18 10:07:43;;;;;;;22.63;14.60;;;;;;;21.17;35.92;100488.97;3599386;39;20125;-68
2021/04/18 10:10:12;;;;;;;21.13;14.00;;;;;;;20.53;36.81;100485.97;3602468;39;20117;-68
2021/04/18 10:12:48;;;;;;;21.83;13.70;;;;;;;20.01;37.27;100489.84;3609739;39;20048;-68
2021/04/18 10:15:16;;;;;;;21.30;13.80;;;;;;;19.90;37.53;100492.44;3608640;39;20071;-67
2021/04/18 10:17:42;;;;;;;24.33;14.45;;;;;;;19.91;37.98;100484.34;3608601;39;20076;-67
2021/04/18 10:20:10;;;;;;;20.90;13.50;;;;;;;19.83;37.47;100491.19;3608288;39;20385;-67
2021/04/18 10:22:36;;;;;;;23.00;14.48;;;;;;;19.55;38.42;100482.53;3609229;39;20407;-66
2021/04/18 10:25:07;;;;;;;23.40;14.52;;;;;;;19.46;37.99;100484.03;3609027;39;20469;-67
2021/04/18 10:27:35;;;;;;;21.55;14.20;;;;;;;19.12;38.67;100488.22;3609184;39;20070;-67
2021/04/18 10:30:18;;;;;;;21.33;13.88;;;;;;;18.87;39.43;100475.78;3608938;39;20048;-67
2021/04/18 10:32:44;;;;;;;22.77;13.80;;;;;;;18.79;39.41;100488.75;3609620;39;20039;-66
2021/04/18 10:35:11;;;;;;;21.52;14.45;;;;;;;18.89;39.83;100481.00;3608395;39;20071;-67
2021/04/18 10:37:37;;;;;;;21.67;14.32;;;;;;;18.73;39.78;100475.88;3609616;39;20024;-66
2021/04/18 10:40:05;;;;;;;24.48;15.40;;;;;;;18.77;39.79;100474.75;3608363;39;20047;-66
2021/04/18 10:42:31;;;;;;;25.02;14.93;;;;;;;18.52;39.71;100480.81;3598862;39;20064;-68
2021/04/18 10:44:57;;;;;;;22.90;14.55;;;;;;;18.24;40.41;100480.97;3598726;39;20114;-66
2021/04/18 10:47:26;;;;;;;21.15;14.10;;;;;;;18.34;40.12;100487.38;3594089;39;20069;-68
2021/04/18 10:49:52;;;;;;;22.83;14.75;;;;;;;18.73;39.89;100477.69;3596742;40;20036;-67
2021/04/18 10:52:19;;;;;;;23.38;15.10;;;;;;;19.12;39.40;100479.38;3590460;39;20033;-67
2021/04/18 10:54:45;;;;;;;25.70;13.88;;;;;;;19.37;38.39;100474.06;3591295;39;20458;-69
2021/04/18 10:57:12;;;;;;;21.55;13.95;;;;;;;19.34;38.63;100478.72;3595533;39;20068;-68
2021/04/18 10:59:41;;;;;;;23.33;14.55;;;;;;;19.14;39.51;100478.31;3595957;39;20040;-69
2021/04/18 11:02:08;;;;;;;24.02;14.18;;;;;;;18.93;39.27;100469.19;3597244;39;20387;-68
2021/04/18 11:04:35;;;;;;;23.38;14.40;;;;;;;18.77;39.58;100468.56;3598760;39;20036;-68
2021/04/18 11:07:03;;;;;;;25.40;14.55;;;;;;;18.76;38.97;100472.19;3595947;39;20047;-67
2021/04/18 11:09:30;;;;;;;22.52;14.82;;;;;;;18.79;39.14;100461.34;3595429;39;20036;-67
2021/04/18 11:11:56;;;;;;;22.20;14.15;;;;;;;18.83;39.00;100473.47;3598340;39;20054;-67
2021/04/18 11:14:22;;;;;;;22.50;14.15;;;;;;;18.60;38.74;100477.66;3604355;39;20039;-68